Terminal Aerodrome Forecast
Issued by NWS

Home | Current Version | Previous Version | Text Only | Print | Product List | Glossary On
Versions: 1 2 3 4 5 6 7 8 9 10 11 12
000
FTUS45 KREV 162300
TAFTVL
TAF
KTVL 162320Z 1700/1724 03007KT P6SM SCT180
     FM170100 VRB03KT P6SM FEW180
     FM171900 20010G18KT P6SM SCT130=

USA.gov is the U.S. government's official web portal to all federal, state and local government web resources and services.